sensor_id;sensor_type;location;lat;lon;timestamp;P1;durP1;ratioP1;P2;durP2;ratioP2
18544;SDS011;9402;51.460;7.276;2023-04-08T00:00:03;31.30;;;16.83;;
18544;SDS011;9402;51.460;7.276;2023-04-08T00:02:07;23.55;;;15.95;;
18544;SDS011;9402;51.460;7.276;2023-04-08T00:04:09;23.25;;;16.08;;
18544;SDS011;9402;51.460;7.276;2023-04-08T00:06:13;24.33;;;16.48;;
18544;SDS011;9402;51.460;7.276;2023-04-08T00:08:15;31.38;;;15.45;;
18544;SDS011;9402;51.460;7.276;2023-04-08T00:10:18;27.25;;;15.27;;
18544;SDS011;9402;51.460;7.276;2023-04-08T00:12:21;63.22;;;16.45;;
18544;SDS011;9402;51.460;7.276;2023-04-08T00:14:24;23.88;;;14.25;;
18544;SDS011;9402;51.460;7.276;2023-04-08T00:16:26;20.88;;;14.25;;
18544;SDS011;9402;51.460;7.276;2023-04-08T00:18:28;23.48;;;14.70;;
18544;SDS011;9402;51.460;7.276;2023-04-08T00:20:31;33.40;;;15.73;;
18544;SDS011;9402;51.460;7.276;2023-04-08T00:22:33;30.33;;;16.00;;
18544;SDS011;9402;51.460;7.276;2023-04-08T00:24:36;24.80;;;16.67;;
18544;SDS011;9402;51.460;7.276;2023-04-08T00:26:39;26.10;;;16.80;;
18544;SDS011;9402;51.460;7.276;2023-04-08T00:28:43;48.42;;;19.80;;
18544;SDS011;9402;51.460;7.276;2023-04-08T00:30:45;25.98;;;16.42;;
18544;SDS011;9402;51.460;7.276;2023-04-08T00:32:48;21.98;;;15.10;;
18544;SDS011;9402;51.460;7.276;2023-04-08T00:34:50;24.70;;;15.75;;
18544;SDS011;9402;51.460;7.276;2023-04-08T00:36:53;30.73;;;16.45;;
18544;SDS011;9402;51.460;7.276;2023-04-08T00:38:55;26.83;;;17.17;;
18544;SDS011;9402;51.460;7.276;2023-04-08T00:40:57;28.63;;;17.75;;
18544;SDS011;9402;51.460;7.276;2023-04-08T00:43:00;29.88;;;17.92;;
18544;SDS011;9402;51.460;7.276;2023-04-08T00:45:04;25.55;;;16.33;;
18544;SDS011;9402;51.460;7.276;2023-04-08T00:47:10;46.20;;;17.70;;
18544;SDS011;9402;51.460;7.276;2023-04-08T00:49:13;24.65;;;15.90;;
18544;SDS011;9402;51.460;7.276;2023-04-08T00:51:16;26.83;;;17.75;;
18544;SDS011;9402;51.460;7.276;2023-04-08T00:53:18;29.02;;;16.55;;
18544;SDS011;9402;51.460;7.276;2023-04-08T00:55:21;24.83;;;17.25;;
18544;SDS011;9402;51.460;7.276;2023-04-08T00:57:23;65.32;;;19.48;;
18544;SDS011;9402;51.460;7.276;2023-04-08T00:59:26;36.92;;;17.50;;
18544;SDS011;9402;51.460;7.276;2023-04-08T01:01:33;64.35;;;18.58;;
18544;SDS011;9402;51.460;7.276;2023-04-08T01:03:41;27.40;;;18.60;;
18544;SDS011;9402;51.460;7.276;2023-04-08T01:05:47;165.85;;;24.38;;
18544;SDS011;9402;51.460;7.276;2023-04-08T01:07:55;135.77;;;26.25;;
18544;SDS011;9402;51.460;7.276;2023-04-08T01:10:02;36.17;;;23.42;;
18544;SDS011;9402;51.460;7.276;2023-04-08T01:12:08;108.72;;;27.45;;
18544;SDS011;9402;51.460;7.276;2023-04-08T01:14:11;35.65;;;23.60;;
18544;SDS011;9402;51.460;7.276;2023-04-08T01:16:20;35.90;;;23.52;;
18544;SDS011;9402;51.460;7.276;2023-04-08T01:18:25;57.45;;;24.70;;
18544;SDS011;9402;51.460;7.276;2023-04-08T01:20:27;55.00;;;26.17;;
18544;SDS011;9402;51.460;7.276;2023-04-08T01:22:33;61.50;;;23.63;;
18544;SDS011;9402;51.460;7.276;2023-04-08T01:24:42;50.42;;;23.40;;
18544;SDS011;9402;51.460;7.276;2023-04-08T01:26:46;39.60;;;24.23;;
18544;SDS011;9402;51.460;7.276;2023-04-08T01:28:49;32.10;;;22.02;;
18544;SDS011;9402;51.460;7.276;2023-04-08T01:30:59;44.15;;;20.33;;
18544;SDS011;9402;51.460;7.276;2023-04-08T01:33:03;38.13;;;20.77;;
18544;SDS011;9402;51.460;7.276;2023-04-08T01:35:06;37.10;;;21.58;;
18544;SDS011;9402;51.460;7.276;2023-04-08T01:37:09;33.85;;;20.85;;
18544;SDS011;9402;51.460;7.276;2023-04-08T01:39:12;42.20;;;19.83;;
18544;SDS011;9402;51.460;7.276;2023-04-08T01:41:16;44.47;;;20.80;;
18544;SDS011;9402;51.460;7.276;2023-04-08T01:43:21;31.10;;;21.23;;
18544;SDS011;9402;51.460;7.276;2023-04-08T01:45:24;30.67;;;21.17;;
18544;SDS011;9402;51.460;7.276;2023-04-08T01:47:27;27.73;;;19.35;;
18544;SDS011;9402;51.460;7.276;2023-04-08T01:49:30;33.30;;;18.45;;
18544;SDS011;9402;51.460;7.276;2023-04-08T01:51:33;29.63;;;20.52;;
18544;SDS011;9402;51.460;7.276;2023-04-08T01:53:36;96.38;;;25.02;;
18544;SDS011;9402;51.460;7.276;2023-04-08T01:55:39;91.30;;;22.08;;
18544;SDS011;9402;51.460;7.276;2023-04-08T01:57:43;32.60;;;22.08;;
18544;SDS011;9402;51.460;7.276;2023-04-08T01:59:51;39.08;;;21.10;;
18544;SDS011;9402;51.460;7.276;2023-04-08T02:01:57;103.38;;;22.70;;
18544;SDS011;9402;51.460;7.276;2023-04-08T02:04:00;106.15;;;24.75;;
18544;SDS011;9402;51.460;7.276;2023-04-08T02:06:03;134.23;;;24.67;;
18544;SDS011;9402;51.460;7.276;2023-04-08T02:08:06;35.95;;;21.92;;
18544;SDS011;9402;51.460;7.276;2023-04-08T02:10:09;52.40;;;21.95;;
18544;SDS011;9402;51.460;7.276;2023-04-08T02:12:11;35.83;;;21.60;;
18544;SDS011;9402;51.460;7.276;2023-04-08T02:14:13;32.45;;;21.38;;
18544;SDS011;9402;51.460;7.276;2023-04-08T02:16:20;52.17;;;23.55;;
18544;SDS011;9402;51.460;7.276;2023-04-08T02:18:24;35.78;;;22.00;;
18544;SDS011;9402;51.460;7.276;2023-04-08T02:20:30;44.47;;;23.42;;
18544;SDS011;9402;51.460;7.276;2023-04-08T02:22:37;56.28;;;21.48;;
18544;SDS011;9402;51.460;7.276;2023-04-08T02:24:40;42.30;;;22.73;;
18544;SDS011;9402;51.460;7.276;2023-04-08T02:26:44;97.18;;;23.40;;
18544;SDS011;9402;51.460;7.276;2023-04-08T02:28:47;61.28;;;22.35;;
18544;SDS011;9402;51.460;7.276;2023-04-08T02:30:50;36.20;;;21.35;;
18544;SDS011;9402;51.460;7.276;2023-04-08T02:32:55;214.48;;;26.38;;
18544;SDS011;9402;51.460;7.276;2023-04-08T02:34:58;50.20;;;23.15;;
18544;SDS011;9402;51.460;7.276;2023-04-08T02:37:01;38.60;;;22.27;;
18544;SDS011;9402;51.460;7.276;2023-04-08T02:39:03;88.43;;;23.45;;
18544;SDS011;9402;51.460;7.276;2023-04-08T02:41:05;55.55;;;22.30;;
18544;SDS011;9402;51.460;7.276;2023-04-08T02:43:08;41.65;;;22.70;;
18544;SDS011;9402;51.460;7.276;2023-04-08T02:45:10;37.58;;;22.10;;
18544;SDS011;9402;51.460;7.276;2023-04-08T02:47:12;45.35;;;21.77;;
18544;SDS011;9402;51.460;7.276;2023-04-08T02:49:17;47.05;;;22.75;;
18544;SDS011;9402;51.460;7.276;2023-04-08T02:51:19;36.17;;;22.13;;
18544;SDS011;9402;51.460;7.276;2023-04-08T02:53:22;33.20;;;21.02;;
18544;SDS011;9402;51.460;7.276;2023-04-08T02:55:24;37.50;;;22.73;;
18544;SDS011;9402;51.460;7.276;2023-04-08T02:57:26;52.47;;;22.60;;
18544;SDS011;9402;51.460;7.276;2023-04-08T02:59:29;37.40;;;23.73;;
18544;SDS011;9402;51.460;7.276;2023-04-08T03:01:31;37.83;;;21.70;;
18544;SDS011;9402;51.460;7.276;2023-04-08T03:03:34;34.05;;;21.55;;
18544;SDS011;9402;51.460;7.276;2023-04-08T03:05:37;94.18;;;23.13;;
18544;SDS011;9402;51.460;7.276;2023-04-08T03:07:39;38.78;;;23.27;;
18544;SDS011;9402;51.460;7.276;2023-04-08T03:09:42;174.32;;;28.38;;
18544;SDS011;9402;51.460;7.276;2023-04-08T03:11:44;96.60;;;22.55;;
18544;SDS011;9402;51.460;7.276;2023-04-08T03:13:51;157.57;;;23.73;;
18544;SDS011;9402;51.460;7.276;2023-04-08T03:15:53;265.63;;;26.50;;
18544;SDS011;9402;51.460;7.276;2023-04-08T03:17:56;197.95;;;22.83;;
18544;SDS011;9402;51.460;7.276;2023-04-08T03:19:58;44.85;;;20.95;;
18544;SDS011;9402;51.460;7.276;2023-04-08T03:22:02;87.88;;;23.00;;
18544;SDS011;9402;51.460;7.276;2023-04-08T03:24:04;50.72;;;24.40;;
18544;SDS011;9402;51.460;7.276;2023-04-08T03:26:07;42.22;;;20.35;;
18544;SDS011;9402;51.460;7.276;2023-04-08T03:28:09;58.83;;;23.67;;
18544;SDS011;9402;51.460;7.276;2023-04-08T03:30:11;57.40;;;23.17;;
18544;SDS011;9402;51.460;7.276;2023-04-08T03:32:14;75.32;;;23.35;;
18544;SDS011;9402;51.460;7.276;2023-04-08T03:34:16;71.65;;;25.48;;
18544;SDS011;9402;51.460;7.276;2023-04-08T03:36:18;137.35;;;22.20;;
18544;SDS011;9402;51.460;7.276;2023-04-08T03:38:22;119.80;;;21.83;;
18544;SDS011;9402;51.460;7.276;2023-04-08T03:40:24;60.00;;;21.50;;
18544;SDS011;9402;51.460;7.276;2023-04-08T03:42:26;181.85;;;25.08;;
18544;SDS011;9402;51.460;7.276;2023-04-08T03:44:29;127.30;;;25.70;;
18544;SDS011;9402;51.460;7.276;2023-04-08T03:46:31;119.00;;;25.02;;
18544;SDS011;9402;51.460;7.276;2023-04-08T03:48:33;97.78;;;23.05;;
18544;SDS011;9402;51.460;7.276;2023-04-08T03:50:36;151.00;;;23.92;;
18544;SDS011;9402;51.460;7.276;2023-04-08T03:52:38;167.60;;;23.20;;
18544;SDS011;9402;51.460;7.276;2023-04-08T03:54:42;109.97;;;22.33;;
18544;SDS011;9402;51.460;7.276;2023-04-08T03:56:44;255.80;;;24.23;;
18544;SDS011;9402;51.460;7.276;2023-04-08T03:58:46;173.10;;;21.40;;
18544;SDS011;9402;51.460;7.276;2023-04-08T04:00:49;176.88;;;22.75;;
18544;SDS011;9402;51.460;7.276;2023-04-08T04:02:51;129.23;;;23.27;;
18544;SDS011;9402;51.460;7.276;2023-04-08T04:04:55;111.10;;;24.70;;
18544;SDS011;9402;51.460;7.276;2023-04-08T04:06:57;54.90;;;23.38;;
18544;SDS011;9402;51.460;7.276;2023-04-08T04:08:59;40.28;;;23.48;;
18544;SDS011;9402;51.460;7.276;2023-04-08T04:11:03;45.35;;;24.27;;
18544;SDS011;9402;51.460;7.276;2023-04-08T04:13:05;77.10;;;25.73;;
18544;SDS011;9402;51.460;7.276;2023-04-08T04:15:08;51.20;;;25.05;;
18544;SDS011;9402;51.460;7.276;2023-04-08T04:17:11;52.25;;;25.48;;
18544;SDS011;9402;51.460;7.276;2023-04-08T04:19:13;44.58;;;24.38;;
18544;SDS011;9402;51.460;7.276;2023-04-08T04:21:16;56.75;;;27.85;;
18544;SDS011;9402;51.460;7.276;2023-04-08T04:23:19;42.08;;;26.25;;
18544;SDS011;9402;51.460;7.276;2023-04-08T04:25:23;52.40;;;26.73;;
18544;SDS011;9402;51.460;7.276;2023-04-08T04:27:27;98.85;;;26.38;;
18544;SDS011;9402;51.460;7.276;2023-04-08T04:29:29;104.38;;;27.00;;
18544;SDS011;9402;51.460;7.276;2023-04-08T04:31:32;98.43;;;25.05;;
18544;SDS011;9402;51.460;7.276;2023-04-08T04:33:34;109.85;;;27.30;;
18544;SDS011;9402;51.460;7.276;2023-04-08T04:35:37;43.92;;;25.73;;
18544;SDS011;9402;51.460;7.276;2023-04-08T04:37:40;73.22;;;25.83;;
18544;SDS011;9402;51.460;7.276;2023-04-08T04:39:42;58.17;;;26.65;;
18544;SDS011;9402;51.460;7.276;2023-04-08T04:41:45;52.70;;;25.55;;
18544;SDS011;9402;51.460;7.276;2023-04-08T04:43:49;49.20;;;24.63;;
18544;SDS011;9402;51.460;7.276;2023-04-08T04:45:51;83.13;;;23.08;;
18544;SDS011;9402;51.460;7.276;2023-04-08T04:47:54;45.45;;;24.67;;
18544;SDS011;9402;51.460;7.276;2023-04-08T04:49:56;69.80;;;25.40;;
18544;SDS011;9402;51.460;7.276;2023-04-08T04:51:59;67.00;;;25.15;;
18544;SDS011;9402;51.460;7.276;2023-04-08T04:54:02;47.83;;;22.48;;
18544;SDS011;9402;51.460;7.276;2023-04-08T04:56:04;61.65;;;24.27;;
18544;SDS011;9402;51.460;7.276;2023-04-08T04:58:07;45.25;;;22.92;;
18544;SDS011;9402;51.460;7.276;2023-04-08T05:00:11;72.22;;;24.33;;
18544;SDS011;9402;51.460;7.276;2023-04-08T05:02:13;34.53;;;20.75;;
18544;SDS011;9402;51.460;7.276;2023-04-08T05:04:16;41.60;;;22.25;;
18544;SDS011;9402;51.460;7.276;2023-04-08T05:06:18;60.67;;;20.75;;
18544;SDS011;9402;51.460;7.276;2023-04-08T05:08:20;34.55;;;19.05;;
18544;SDS011;9402;51.460;7.276;2023-04-08T05:10:23;50.38;;;20.83;;
18544;SDS011;9402;51.460;7.276;2023-04-08T05:12:25;41.17;;;20.90;;
18544;SDS011;9402;51.460;7.276;2023-04-08T05:14:28;34.33;;;18.35;;
18544;SDS011;9402;51.460;7.276;2023-04-08T05:16:31;36.20;;;19.08;;
18544;SDS011;9402;51.460;7.276;2023-04-08T05:18:34;45.30;;;18.20;;
18544;SDS011;9402;51.460;7.276;2023-04-08T05:20:36;56.17;;;19.15;;
18544;SDS011;9402;51.460;7.276;2023-04-08T05:22:39;132.32;;;20.92;;
18544;SDS011;9402;51.460;7.276;2023-04-08T05:24:43;40.90;;;21.15;;
18544;SDS011;9402;51.460;7.276;2023-04-08T05:26:45;39.28;;;19.88;;
18544;SDS011;9402;51.460;7.276;2023-04-08T05:28:51;37.97;;;19.63;;
18544;SDS011;9402;51.460;7.276;2023-04-08T05:30:53;288.17;;;23.63;;
18544;SDS011;9402;51.460;7.276;2023-04-08T05:32:57;48.90;;;21.55;;
18544;SDS011;9402;51.460;7.276;2023-04-08T05:35:00;42.72;;;21.05;;
18544;SDS011;9402;51.460;7.276;2023-04-08T05:37:03;120.70;;;22.15;;
18544;SDS011;9402;51.460;7.276;2023-04-08T05:39:05;126.65;;;24.75;;
18544;SDS011;9402;51.460;7.276;2023-04-08T05:41:07;79.13;;;22.92;;
18544;SDS011;9402;51.460;7.276;2023-04-08T05:43:10;75.90;;;25.25;;
18544;SDS011;9402;51.460;7.276;2023-04-08T05:45:12;66.72;;;29.52;;
18544;SDS011;9402;51.460;7.276;2023-04-08T05:47:15;56.05;;;30.70;;
18544;SDS011;9402;51.460;7.276;2023-04-08T05:49:18;50.33;;;30.40;;
18544;SDS011;9402;51.460;7.276;2023-04-08T05:51:21;57.22;;;30.15;;
18544;SDS011;9402;51.460;7.276;2023-04-08T05:53:23;83.07;;;28.45;;
18544;SDS011;9402;51.460;7.276;2023-04-08T05:55:25;137.38;;;30.88;;
18544;SDS011;9402;51.460;7.276;2023-04-08T05:57:28;51.85;;;29.05;;
18544;SDS011;9402;51.460;7.276;2023-04-08T05:59:30;123.80;;;32.03;;
18544;SDS011;9402;51.460;7.276;2023-04-08T06:01:32;72.45;;;29.52;;
18544;SDS011;9402;51.460;7.276;2023-04-08T06:03:35;68.53;;;27.13;;
18544;SDS011;9402;51.460;7.276;2023-04-08T06:05:38;46.08;;;27.95;;
18544;SDS011;9402;51.460;7.276;2023-04-08T06:07:41;51.17;;;29.35;;
18544;SDS011;9402;51.460;7.276;2023-04-08T06:09:43;46.65;;;29.02;;
18544;SDS011;9402;51.460;7.276;2023-04-08T06:11:45;69.32;;;27.95;;
18544;SDS011;9402;51.460;7.276;2023-04-08T06:13:49;72.53;;;30.02;;
18544;SDS011;9402;51.460;7.276;2023-04-08T06:15:52;88.95;;;31.55;;
18544;SDS011;9402;51.460;7.276;2023-04-08T06:17:54;63.30;;;29.27;;
18544;SDS011;9402;51.460;7.276;2023-04-08T06:19:56;44.75;;;28.33;;
18544;SDS011;9402;51.460;7.276;2023-04-08T06:22:00;40.97;;;25.77;;
18544;SDS011;9402;51.460;7.276;2023-04-08T06:24:02;57.88;;;27.77;;
18544;SDS011;9402;51.460;7.276;2023-04-08T06:26:05;48.13;;;28.30;;
18544;SDS011;9402;51.460;7.276;2023-04-08T06:28:07;51.08;;;28.83;;
18544;SDS011;9402;51.460;7.276;2023-04-08T06:30:10;48.95;;;28.85;;
18544;SDS011;9402;51.460;7.276;2023-04-08T06:32:13;47.45;;;27.73;;
18544;SDS011;9402;51.460;7.276;2023-04-08T06:34:15;47.45;;;29.67;;
18544;SDS011;9402;51.460;7.276;2023-04-08T06:36:17;45.05;;;27.27;;
18544;SDS011;9402;51.460;7.276;2023-04-08T06:38:21;54.17;;;28.48;;
18544;SDS011;9402;51.460;7.276;2023-04-08T06:40:23;64.53;;;26.67;;
18544;SDS011;9402;51.460;7.276;2023-04-08T06:42:26;44.30;;;27.75;;
18544;SDS011;9402;51.460;7.276;2023-04-08T06:44:28;50.65;;;29.75;;
18544;SDS011;9402;51.460;7.276;2023-04-08T06:46:30;48.67;;;29.85;;
18544;SDS011;9402;51.460;7.276;2023-04-08T06:48:33;56.45;;;31.60;;
18544;SDS011;9402;51.460;7.276;2023-04-08T06:50:36;53.72;;;31.50;;
18544;SDS011;9402;51.460;7.276;2023-04-08T06:52:39;45.97;;;28.45;;
18544;SDS011;9402;51.460;7.276;2023-04-08T06:54:42;44.33;;;28.15;;
18544;SDS011;9402;51.460;7.276;2023-04-08T06:56:45;43.33;;;27.95;;
18544;SDS011;9402;51.460;7.276;2023-04-08T06:58:47;50.28;;;29.23;;
18544;SDS011;9402;51.460;7.276;2023-04-08T07:00:50;52.03;;;31.70;;
18544;SDS011;9402;51.460;7.276;2023-04-08T07:02:53;47.38;;;28.60;;
18544;SDS011;9402;51.460;7.276;2023-04-08T07:04:55;47.30;;;29.88;;
18544;SDS011;9402;51.460;7.276;2023-04-08T07:06:58;47.47;;;29.98;;
18544;SDS011;9402;51.460;7.276;2023-04-08T07:09:00;51.22;;;30.63;;
18544;SDS011;9402;51.460;7.276;2023-04-08T07:11:05;54.75;;;29.83;;
18544;SDS011;9402;51.460;7.276;2023-04-08T07:13:07;54.90;;;30.48;;
18544;SDS011;9402;51.460;7.276;2023-04-08T07:15:10;53.00;;;29.75;;
18544;SDS011;9402;51.460;7.276;2023-04-08T07:17:12;66.30;;;34.08;;
18544;SDS011;9402;51.460;7.276;2023-04-08T07:19:15;60.15;;;33.20;;
18544;SDS011;9402;51.460;7.276;2023-04-08T07:21:17;54.00;;;32.28;;
18544;SDS011;9402;51.460;7.276;2023-04-08T07:23:20;66.53;;;36.67;;
18544;SDS011;9402;51.460;7.276;2023-04-08T07:25:22;65.75;;;35.95;;
18544;SDS011;9402;51.460;7.276;2023-04-08T07:27:26;59.38;;;35.03;;
18544;SDS011;9402;51.460;7.276;2023-04-08T07:29:28;57.33;;;33.22;;
18544;SDS011;9402;51.460;7.276;2023-04-08T07:31:31;56.30;;;35.15;;
18544;SDS011;9402;51.460;7.276;2023-04-08T07:33:33;50.88;;;33.33;;
18544;SDS011;9402;51.460;7.276;2023-04-08T07:35:35;59.17;;;36.85;;
18544;SDS011;9402;51.460;7.276;2023-04-08T07:37:38;71.18;;;40.88;;
18544;SDS011;9402;51.460;7.276;2023-04-08T07:39:40;68.43;;;40.85;;
18544;SDS011;9402;51.460;7.276;2023-04-08T07:41:42;76.28;;;45.47;;
18544;SDS011;9402;51.460;7.276;2023-04-08T07:43:46;81.78;;;47.53;;
18544;SDS011;9402;51.460;7.276;2023-04-08T07:45:48;83.00;;;50.42;;
18544;SDS011;9402;51.460;7.276;2023-04-08T07:47:51;75.22;;;43.72;;
18544;SDS011;9402;51.460;7.276;2023-04-08T07:49:53;71.53;;;42.80;;
18544;SDS011;9402;51.460;7.276;2023-04-08T07:51:56;61.35;;;40.83;;
18544;SDS011;9402;51.460;7.276;2023-04-08T07:53:58;68.68;;;43.80;;
18544;SDS011;9402;51.460;7.276;2023-04-08T07:56:01;69.93;;;42.00;;
18544;SDS011;9402;51.460;7.276;2023-04-08T07:58:04;57.40;;;39.60;;
18544;SDS011;9402;51.460;7.276;2023-04-08T08:00:08;53.28;;;35.47;;
18544;SDS011;9402;51.460;7.276;2023-04-08T08:02:11;52.33;;;34.50;;
18544;SDS011;9402;51.460;7.276;2023-04-08T08:04:13;60.53;;;38.17;;
18544;SDS011;9402;51.460;7.276;2023-04-08T08:06:15;50.90;;;32.50;;
18544;SDS011;9402;51.460;7.276;2023-04-08T08:08:18;58.30;;;35.67;;
18544;SDS011;9402;51.460;7.276;2023-04-08T08:10:20;60.40;;;34.03;;
18544;SDS011;9402;51.460;7.276;2023-04-08T08:12:22;52.05;;;32.78;;
18544;SDS011;9402;51.460;7.276;2023-04-08T08:14:25;54.13;;;31.08;;
18544;SDS011;9402;51.460;7.276;2023-04-08T08:16:29;48.55;;;27.13;;
18544;SDS011;9402;51.460;7.276;2023-04-08T08:18:32;48.63;;;30.75;;
18544;SDS011;9402;51.460;7.276;2023-04-08T08:20:35;45.25;;;29.05;;
18544;SDS011;9402;51.460;7.276;2023-04-08T08:22:37;44.73;;;29.07;;
18544;SDS011;9402;51.460;7.276;2023-04-08T08:24:40;41.40;;;26.70;;
18544;SDS011;9402;51.460;7.276;2023-04-08T08:26:42;44.57;;;27.27;;
18544;SDS011;9402;51.460;7.276;2023-04-08T08:28:46;44.08;;;26.75;;
18544;SDS011;9402;51.460;7.276;2023-04-08T08:30:49;46.47;;;26.63;;
18544;SDS011;9402;51.460;7.276;2023-04-08T08:32:53;47.70;;;26.83;;
18544;SDS011;9402;51.460;7.276;2023-04-08T08:34:58;44.60;;;25.05;;
18544;SDS011;9402;51.460;7.276;2023-04-08T08:37:00;46.38;;;25.25;;
18544;SDS011;9402;51.460;7.276;2023-04-08T08:39:02;43.27;;;25.07;;
18544;SDS011;9402;51.460;7.276;2023-04-08T08:41:05;38.03;;;22.95;;
18544;SDS011;9402;51.460;7.276;2023-04-08T08:43:07;33.40;;;20.53;;
18544;SDS011;9402;51.460;7.276;2023-04-08T08:45:10;35.40;;;20.90;;
18544;SDS011;9402;51.460;7.276;2023-04-08T08:47:13;35.43;;;22.50;;
18544;SDS011;9402;51.460;7.276;2023-04-08T08:49:17;39.97;;;22.58;;
18544;SDS011;9402;51.460;7.276;2023-04-08T08:51:20;32.73;;;19.43;;
18544;SDS011;9402;51.460;7.276;2023-04-08T08:53:25;33.97;;;20.55;;
18544;SDS011;9402;51.460;7.276;2023-04-08T08:55:30;35.23;;;20.80;;
18544;SDS011;9402;51.460;7.276;2023-04-08T08:57:34;36.70;;;22.47;;
18544;SDS011;9402;51.460;7.276;2023-04-08T08:59:36;40.00;;;24.98;;
18544;SDS011;9402;51.460;7.276;2023-04-08T09:01:38;33.30;;;20.00;;
18544;SDS011;9402;51.460;7.276;2023-04-08T09:03:41;41.77;;;21.13;;
18544;SDS011;9402;51.460;7.276;2023-04-08T09:05:48;30.70;;;20.40;;
18544;SDS011;9402;51.460;7.276;2023-04-08T09:07:51;37.37;;;22.13;;
18544;SDS011;9402;51.460;7.276;2023-04-08T09:09:55;31.23;;;20.40;;
18544;SDS011;9402;51.460;7.276;2023-04-08T09:12:01;36.07;;;20.63;;
18544;SDS011;9402;51.460;7.276;2023-04-08T09:14:05;32.33;;;18.97;;
18544;SDS011;9402;51.460;7.276;2023-04-08T09:16:18;29.80;;;19.00;;
18544;SDS011;9402;51.460;7.276;2023-04-08T09:18:22;29.00;;;18.60;;
18544;SDS011;9402;51.460;7.276;2023-04-08T09:20:25;27.57;;;16.47;;
18544;SDS011;9402;51.460;7.276;2023-04-08T09:22:29;27.47;;;18.07;;
18544;SDS011;9402;51.460;7.276;2023-04-08T09:24:31;32.00;;;17.80;;
18544;SDS011;9402;51.460;7.276;2023-04-08T09:26:34;27.60;;;19.10;;
18544;SDS011;9402;51.460;7.276;2023-04-08T09:28:38;28.93;;;19.70;;
18544;SDS011;9402;51.460;7.276;2023-04-08T09:30:40;29.03;;;17.97;;
18544;SDS011;9402;51.460;7.276;2023-04-08T09:32:46;27.53;;;16.07;;
18544;SDS011;9402;51.460;7.276;2023-04-08T09:34:50;27.07;;;17.77;;
18544;SDS011;9402;51.460;7.276;2023-04-08T09:36:52;24.90;;;18.03;;
18544;SDS011;9402;51.460;7.276;2023-04-08T09:38:57;28.33;;;17.00;;
18544;SDS011;9402;51.460;7.276;2023-04-08T09:40:59;30.30;;;17.60;;
18544;SDS011;9402;51.460;7.276;2023-04-08T09:43:07;28.55;;;14.18;;
18544;SDS011;9402;51.460;7.276;2023-04-08T09:45:11;29.70;;;15.97;;
18544;SDS011;9402;51.460;7.276;2023-04-08T09:47:17;24.92;;;15.18;;
18544;SDS011;9402;51.460;7.276;2023-04-08T09:49:22;23.45;;;15.75;;
18544;SDS011;9402;51.460;7.276;2023-04-08T09:51:28;24.02;;;15.27;;
18544;SDS011;9402;51.460;7.276;2023-04-08T09:53:35;27.27;;;15.10;;
18544;SDS011;9402;51.460;7.276;2023-04-08T09:55:40;23.87;;;15.20;;
18544;SDS011;9402;51.460;7.276;2023-04-08T09:57:45;23.90;;;15.27;;
18544;SDS011;9402;51.460;7.276;2023-04-08T09:59:53;25.95;;;15.40;;
18544;SDS011;9402;51.460;7.276;2023-04-08T10:02:03;24.80;;;13.30;;
18544;SDS011;9402;51.460;7.276;2023-04-08T10:04:09;20.00;;;12.83;;
18544;SDS011;9402;51.460;7.276;2023-04-08T10:06:14;20.65;;;13.82;;
18544;SDS011;9402;51.460;7.276;2023-04-08T10:08:18;23.73;;;13.32;;
18544;SDS011;9402;51.460;7.276;2023-04-08T10:10:20;23.73;;;15.07;;
18544;SDS011;9402;51.460;7.276;2023-04-08T10:12:24;21.38;;;13.18;;
18544;SDS011;9402;51.460;7.276;2023-04-08T10:14:27;25.08;;;13.48;;
18544;SDS011;9402;51.460;7.276;2023-04-08T10:16:30;32.85;;;13.82;;
18544;SDS011;9402;51.460;7.276;2023-04-08T10:18:32;19.40;;;12.80;;
18544;SDS011;9402;51.460;7.276;2023-04-08T10:20:42;22.80;;;13.85;;
18544;SDS011;9402;51.460;7.276;2023-04-08T10:22:45;26.88;;;13.63;;
18544;SDS011;9402;51.460;7.276;2023-04-08T10:27:37;20.15;;;13.68;;
18544;SDS011;9402;51.460;7.276;2023-04-08T10:29:41;25.27;;;14.80;;
18544;SDS011;9402;51.460;7.276;2023-04-08T10:31:45;27.90;;;15.07;;
18544;SDS011;9402;51.460;7.276;2023-04-08T10:33:48;24.40;;;14.70;;
18544;SDS011;9402;51.460;7.276;2023-04-08T10:35:54;29.02;;;15.23;;
18544;SDS011;9402;51.460;7.276;2023-04-08T10:38:01;31.70;;;15.90;;
18544;SDS011;9402;51.460;7.276;2023-04-08T10:40:05;24.70;;;15.63;;
18544;SDS011;9402;51.460;7.276;2023-04-08T10:42:08;29.30;;;17.35;;
18544;SDS011;9402;51.460;7.276;2023-04-08T10:44:17;28.27;;;16.03;;
18544;SDS011;9402;51.460;7.276;2023-04-08T10:46:20;26.60;;;16.00;;
18544;SDS011;9402;51.460;7.276;2023-04-08T10:48:24;27.00;;;16.20;;
18544;SDS011;9402;51.460;7.276;2023-04-08T10:50:28;26.27;;;15.60;;
18544;SDS011;9402;51.460;7.276;2023-04-08T10:52:31;25.17;;;14.83;;
18544;SDS011;9402;51.460;7.276;2023-04-08T10:54:33;24.13;;;15.60;;
18544;SDS011;9402;51.460;7.276;2023-04-08T10:56:42;27.13;;;16.40;;
18544;SDS011;9402;51.460;7.276;2023-04-08T10:58:46;24.97;;;16.77;;
18544;SDS011;9402;51.460;7.276;2023-04-08T11:00:51;27.73;;;16.97;;
18544;SDS011;9402;51.460;7.276;2023-04-08T11:02:53;29.27;;;16.67;;
18544;SDS011;9402;51.460;7.276;2023-04-08T11:04:57;28.00;;;18.00;;
18544;SDS011;9402;51.460;7.276;2023-04-08T11:06:59;31.13;;;21.37;;
18544;SDS011;9402;51.460;7.276;2023-04-08T11:09:07;26.83;;;19.60;;
18544;SDS011;9402;51.460;7.276;2023-04-08T11:11:09;28.20;;;20.50;;
18544;SDS011;9402;51.460;7.276;2023-04-08T11:13:12;30.37;;;19.30;;
18544;SDS011;9402;51.460;7.276;2023-04-08T11:15:16;27.93;;;19.53;;
18544;SDS011;9402;51.460;7.276;2023-04-08T11:17:20;32.73;;;23.60;;
18544;SDS011;9402;51.460;7.276;2023-04-08T11:19:23;34.97;;;23.93;;
18544;SDS011;9402;51.460;7.276;2023-04-08T11:21:25;35.37;;;25.50;;
18544;SDS011;9402;51.460;7.276;2023-04-08T11:23:28;39.07;;;25.37;;
18544;SDS011;9402;51.460;7.276;2023-04-08T11:25:31;38.20;;;27.30;;
18544;SDS011;9402;51.460;7.276;2023-04-08T11:27:34;36.97;;;27.43;;
18544;SDS011;9402;51.460;7.276;2023-04-08T11:29:38;38.87;;;29.00;;
18544;SDS011;9402;51.460;7.276;2023-04-08T11:31:41;41.37;;;28.10;;
18544;SDS011;9402;51.460;7.276;2023-04-08T11:33:46;38.13;;;27.30;;
18544;SDS011;9402;51.460;7.276;2023-04-08T11:35:49;36.90;;;27.87;;
18544;SDS011;9402;51.460;7.276;2023-04-08T11:37:52;44.83;;;30.37;;
18544;SDS011;9402;51.460;7.276;2023-04-08T11:39:54;39.93;;;29.30;;
18544;SDS011;9402;51.460;7.276;2023-04-08T11:41:57;36.50;;;27.40;;
18544;SDS011;9402;51.460;7.276;2023-04-08T11:43:59;40.13;;;28.43;;
18544;SDS011;9402;51.460;7.276;2023-04-08T11:46:07;38.07;;;26.63;;
18544;SDS011;9402;51.460;7.276;2023-04-08T11:48:10;44.40;;;30.30;;
18544;SDS011;9402;51.460;7.276;2023-04-08T11:50:22;38.83;;;27.90;;
18544;SDS011;9402;51.460;7.276;2023-04-08T11:52:39;42.33;;;30.43;;
18544;SDS011;9402;51.460;7.276;2023-04-08T11:54:42;41.50;;;28.60;;
18544;SDS011;9402;51.460;7.276;2023-04-08T11:56:45;36.47;;;27.23;;
18544;SDS011;9402;51.460;7.276;2023-04-08T11:58:47;42.60;;;28.50;;
18544;SDS011;9402;51.460;7.276;2023-04-08T12:00:51;39.00;;;28.20;;
18544;SDS011;9402;51.460;7.276;2023-04-08T12:02:54;38.87;;;28.60;;
18544;SDS011;9402;51.460;7.276;2023-04-08T12:04:56;44.00;;;33.40;;
18544;SDS011;9402;51.460;7.276;2023-04-08T12:07:00;48.83;;;37.60;;
18544;SDS011;9402;51.460;7.276;2023-04-08T12:09:03;43.50;;;29.80;;
18544;SDS011;9402;51.460;7.276;2023-04-08T12:11:05;48.80;;;36.93;;
18544;SDS011;9402;51.460;7.276;2023-04-08T12:13:08;55.77;;;39.57;;